createdAt,value
2023-04-02T00:00:34.426Z,6.3393
2023-04-02T00:01:35.217Z,6.3414
2023-04-02T00:02:36.035Z,6.3477
2023-04-02T00:03:36.967Z,6.3316
2023-04-02T00:04:37.994Z,6.3964
2023-04-02T00:05:38.786Z,6.3901
2023-04-02T00:06:39.609Z,6.3762
2023-04-02T00:07:40.452Z,6.4191
2023-04-02T00:08:41.312Z,6.4705
2023-04-02T00:09:42.188Z,6.5321
2023-04-02T00:10:43.004Z,6.5446
2023-04-02T00:11:43.757Z,6.4846
2023-04-02T00:12:44.609Z,6.4443
2023-04-02T00:13:45.386Z,6.4668
2023-04-02T00:14:47.356Z,6.4572
2023-04-02T00:15:48.166Z,6.4749
2023-04-02T00:16:48.985Z,6.4782
2023-04-02T00:17:49.972Z,6.4440
2023-04-02T00:18:50.750Z,6.4240
2023-04-02T00:19:51.601Z,6.4157
2023-04-02T00:20:52.414Z,6.4483
2023-04-02T00:21:53.234Z,6.4545
2023-04-02T00:22:54.200Z,6.4767
2023-04-02T00:23:54.997Z,6.4706
2023-04-02T00:24:55.811Z,6.4437
2023-04-02T00:25:56.782Z,6.4339
2023-04-02T00:26:57.626Z,6.4251
2023-04-02T00:27:58.479Z,6.4031
2023-04-02T00:28:59.293Z,6.3944
2023-04-02T00:30:00.189Z,6.3873
2023-04-02T00:31:00.992Z,6.3764
2023-04-02T00:32:01.898Z,6.3359
2023-04-02T00:33:02.789Z,6.3177
2023-04-02T00:34:03.701Z,6.2530
2023-04-02T00:35:04.560Z,6.2105
2023-04-02T00:36:05.389Z,6.1900
2023-04-02T00:37:06.235Z,6.1933
2023-04-02T00:38:07.133Z,6.1577
2023-04-02T00:39:07.890Z,6.1167
2023-04-02T00:40:08.674Z,6.1428
2023-04-02T00:41:09.547Z,6.1667
2023-04-02T00:42:10.348Z,6.1510
2023-04-02T00:43:11.170Z,6.1128
2023-04-02T00:44:12.029Z,6.0711
2023-04-02T00:45:12.847Z,6.0563
2023-04-02T00:46:13.691Z,6.0353
2023-04-02T00:47:14.714Z,6.0150
2023-04-02T00:48:15.543Z,6.0507
2023-04-02T00:49:16.411Z,6.0347
2023-04-02T00:50:17.335Z,5.9940
2023-04-02T00:51:18.176Z,5.9994
2023-04-02T00:52:18.997Z,6.0211
2023-04-02T00:53:19.861Z,5.9628
2023-04-02T00:54:20.667Z,5.9431
2023-04-02T00:55:21.590Z,5.9580
2023-04-02T00:56:22.465Z,5.9366
2023-04-02T00:57:23.369Z,5.9799
2023-04-02T00:58:24.339Z,5.9505
2023-04-02T00:59:25.265Z,5.9360
2023-04-02T01:00:26.181Z,5.9950
2023-04-02T01:01:27.177Z,6.0243
2023-04-02T01:02:28.545Z,5.9733
2023-04-02T01:03:30.244Z,5.9553
2023-04-02T01:04:32.002Z,5.9914
2023-04-02T01:05:33.302Z,5.9493
2023-04-02T01:06:35.160Z,5.9113
2023-04-02T01:07:36.000Z,5.9317
2023-04-02T01:08:36.827Z,5.9665
2023-04-02T01:09:37.720Z,5.9545
2023-04-02T01:10:38.870Z,5.9457
2023-04-02T01:11:39.814Z,5.9246
2023-04-02T01:12:40.762Z,5.9651
2023-04-02T01:13:41.653Z,6.0453
2023-04-02T01:14:42.513Z,6.0535
2023-04-02T01:15:43.430Z,6.0587
2023-04-02T01:16:44.250Z,6.0632
2023-04-02T01:17:45.134Z,6.0417
2023-04-02T01:18:46.115Z,6.0327
2023-04-02T01:19:47.044Z,6.0181
2023-04-02T01:20:48.099Z,6.0300
2023-04-02T01:21:48.924Z,6.0427
2023-04-02T01:22:49.848Z,6.0327
2023-04-02T01:23:50.672Z,6.0127
2023-04-02T01:24:51.499Z,6.0598
2023-04-02T01:25:52.377Z,6.0592
2023-04-02T01:26:53.160Z,6.0685
2023-04-02T01:27:54.005Z,6.0662
2023-04-02T01:28:55.079Z,6.0422
2023-04-02T01:29:55.980Z,6.0789
2023-04-02T01:30:56.848Z,6.0784
2023-04-02T01:31:57.709Z,6.0848
2023-04-02T01:32:58.556Z,6.0852
2023-04-02T01:33:59.716Z,6.0410
2023-04-02T01:35:00.506Z,6.0329
2023-04-02T01:36:01.419Z,6.0499
2023-04-02T01:37:02.328Z,6.0466
2023-04-02T01:38:03.143Z,6.0479
2023-04-02T01:39:03.928Z,6.0581
2023-04-02T01:40:04.692Z,6.0440
2023-04-02T01:41:05.522Z,6.0640
2023-04-02T01:42:06.334Z,6.0485
2023-04-02T01:43:07.160Z,6.0586
2023-04-02T01:44:08.992Z,6.0554
2023-04-02T01:45:09.893Z,6.0650
2023-04-02T01:46:10.780Z,6.0782
2023-04-02T01:47:11.604Z,6.0645
2023-04-02T01:48:12.425Z,6.0907
2023-04-02T01:49:13.327Z,6.1052
2023-04-02T01:50:14.192Z,6.1272
2023-04-02T01:51:15.080Z,6.1427
2023-04-02T01:52:15.993Z,6.1648
2023-04-02T01:53:16.848Z,6.1473
2023-04-02T01:54:18.654Z,6.1382
2023-04-02T01:55:19.712Z,6.1301
2023-04-02T01:56:20.528Z,6.1348
2023-04-02T01:57:21.482Z,6.1306
2023-04-02T01:58:22.366Z,6.1242
2023-04-02T01:59:23.256Z,6.1512
2023-04-02T02:00:24.115Z,6.1540
2023-04-02T02:01:25.034Z,6.1343
2023-04-02T02:02:25.987Z,6.1067
2023-04-02T02:03:26.810Z,6.1070
2023-04-02T02:04:27.715Z,6.1268
2023-04-02T02:05:28.618Z,6.1196
2023-04-02T02:06:29.440Z,6.1084
2023-04-02T02:07:30.292Z,6.1077
2023-04-02T02:08:31.085Z,6.1108
2023-04-02T02:09:31.906Z,6.0943
2023-04-02T02:10:32.716Z,6.0960
2023-04-02T02:11:33.516Z,6.1093
2023-04-02T02:12:34.356Z,6.1125
2023-04-02T02:13:35.197Z,6.0931
2023-04-02T02:14:36.017Z,6.1030
2023-04-02T02:15:37.141Z,6.0873
2023-04-02T02:16:38.382Z,6.0801
2023-04-02T02:17:39.245Z,6.0417
2023-04-02T02:18:40.079Z,6.0296
2023-04-02T02:19:40.929Z,6.0084
2023-04-02T02:20:41.859Z,5.9898
2023-04-02T02:21:42.680Z,5.9862
2023-04-02T02:22:43.532Z,5.9331
2023-04-02T02:23:44.400Z,5.9024
2023-04-02T02:24:45.207Z,5.9137
2023-04-02T02:25:46.050Z,5.9118
2023-04-02T02:26:46.870Z,5.8721
2023-04-02T02:27:47.768Z,5.8971
2023-04-02T02:28:48.556Z,5.8885
2023-04-02T02:29:49.444Z,5.9142
2023-04-02T02:30:50.361Z,5.8682
2023-04-02T02:31:51.281Z,5.9003
2023-04-02T02:32:52.197Z,5.9084
2023-04-02T02:33:53.109Z,5.8238
2023-04-02T02:34:53.964Z,5.7918
2023-04-02T02:35:54.905Z,5.8203
2023-04-02T02:36:55.813Z,5.8303
2023-04-02T02:37:56.678Z,5.8877
2023-04-02T02:38:57.597Z,5.9081
2023-04-02T02:39:58.452Z,5.8682
2023-04-02T02:40:59.319Z,5.8787
2023-04-02T02:42:00.157Z,5.9228
2023-04-02T02:43:00.953Z,5.9610
2023-04-02T02:44:01.804Z,6.0009
2023-04-02T02:45:02.661Z,6.0145
2023-04-02T02:46:03.537Z,6.0470
2023-04-02T02:47:04.384Z,6.0507
2023-04-02T02:48:05.259Z,6.0395
2023-04-02T02:49:06.122Z,6.0335
2023-04-02T02:50:06.943Z,6.0618
2023-04-02T02:51:07.796Z,6.0270
2023-04-02T02:52:08.662Z,6.0165
2023-04-02T02:53:09.567Z,6.0160
2023-04-02T02:54:10.357Z,6.0187
2023-04-02T02:55:11.213Z,5.9547
2023-04-02T02:56:12.047Z,5.9565
2023-04-02T02:57:12.941Z,5.9130
2023-04-02T02:58:13.808Z,5.9050
2023-04-02T02:59:14.651Z,5.9178
2023-04-02T03:00:15.572Z,5.9102
2023-04-02T03:01:16.426Z,5.9209
2023-04-02T03:02:17.315Z,5.9401
2023-04-02T03:03:18.430Z,5.9647
2023-04-02T03:04:19.626Z,5.9650
2023-04-02T03:05:20.659Z,5.9770
2023-04-02T03:06:21.556Z,5.9998
2023-04-02T03:07:22.384Z,5.9736
2023-04-02T03:08:23.207Z,5.9655
2023-04-02T03:09:24.064Z,5.9707
2023-04-02T03:10:24.924Z,5.9677
2023-04-02T03:11:25.816Z,5.9791
2023-04-02T03:12:26.644Z,5.9647
2023-04-02T03:13:27.530Z,5.9367
2023-04-02T03:14:28.418Z,5.9519
2023-04-02T03:15:29.273Z,5.9281
2023-04-02T03:16:30.125Z,5.9168
2023-04-02T03:17:30.958Z,5.8920
2023-04-02T03:18:31.795Z,5.8742
2023-04-02T03:19:32.560Z,5.8693
2023-04-02T03:20:33.398Z,5.8676
2023-04-02T03:21:34.280Z,5.8813
2023-04-02T03:22:35.108Z,5.8716
2023-04-02T03:23:36.016Z,5.8550
2023-04-02T03:24:36.871Z,5.8617
2023-04-02T03:25:37.759Z,5.8439
2023-04-02T03:26:38.636Z,5.8438
2023-04-02T03:27:39.440Z,5.8510
2023-04-02T03:28:40.346Z,5.8799
2023-04-02T03:29:41.205Z,5.8638
2023-04-02T03:30:42.018Z,5.8787
2023-04-02T03:31:42.939Z,5.8083
2023-04-02T03:32:43.793Z,5.7942
2023-04-02T03:33:44.639Z,5.7848
2023-04-02T03:34:45.551Z,5.7868
2023-04-02T03:35:46.401Z,5.7721
2023-04-02T03:36:47.305Z,5.7920
2023-04-02T03:37:48.132Z,5.7752
2023-04-02T03:38:48.990Z,5.7550
2023-04-02T03:39:49.862Z,5.7289
2023-04-02T03:40:50.734Z,5.7375
2023-04-02T03:41:51.521Z,5.7115
2023-04-02T03:42:52.407Z,5.7505
2023-04-02T03:43:53.254Z,5.7176
2023-04-02T03:44:54.067Z,5.7066
2023-04-02T03:45:54.907Z,5.7473
2023-04-02T03:46:55.860Z,5.7872
2023-04-02T03:47:56.715Z,5.7493
2023-04-02T03:48:57.622Z,5.7446
2023-04-02T03:49:58.430Z,5.6896
2023-04-02T03:50:59.304Z,5.6720
2023-04-02T03:52:00.224Z,5.7052
2023-04-02T03:53:01.069Z,5.7013
2023-04-02T03:54:01.915Z,5.6682
2023-04-02T03:55:02.690Z,5.6568
2023-04-02T03:56:03.475Z,5.6402
2023-04-02T03:57:04.381Z,5.6100
2023-04-02T03:58:05.271Z,5.6359
2023-04-02T03:59:06.061Z,5.6582
2023-04-02T04:00:06.896Z,5.6567
2023-04-02T04:01:07.770Z,5.6260
2023-04-02T04:02:08.633Z,5.6490
2023-04-02T04:03:09.534Z,5.6458
2023-04-02T04:04:10.599Z,5.6825
2023-04-02T04:05:11.768Z,5.6850
2023-04-02T04:06:12.755Z,5.7250
2023-04-02T04:07:13.671Z,5.7379
2023-04-02T04:08:14.508Z,5.7968
2023-04-02T04:09:15.370Z,6.0625
2023-04-02T04:10:16.234Z,6.1525
2023-04-02T04:11:17.118Z,6.1894
2023-04-02T04:12:17.946Z,6.1730
2023-04-02T04:13:18.859Z,6.1444
2023-04-02T04:14:19.658Z,6.1989
2023-04-02T04:15:20.547Z,6.1735
2023-04-02T04:16:21.468Z,6.1633
2023-04-02T04:17:22.320Z,6.1387
2023-04-02T04:18:24.187Z,6.1408
2023-04-02T04:19:25.012Z,6.1509
2023-04-02T04:20:25.836Z,6.1966
2023-04-02T04:21:26.687Z,6.1690
2023-04-02T04:22:27.563Z,6.1768
2023-04-02T04:23:28.385Z,6.1918
2023-04-02T04:24:29.247Z,6.1602
2023-04-02T04:25:30.104Z,6.1411
2023-04-02T04:26:31.178Z,6.1494
2023-04-02T04:27:32.058Z,6.1696
2023-04-02T04:28:33.002Z,6.1613
2023-04-02T04:29:33.842Z,6.1589
2023-04-02T04:30:34.788Z,6.1544
2023-04-02T04:31:35.637Z,6.1536
2023-04-02T04:32:36.549Z,6.1368
2023-04-02T04:33:37.356Z,6.1321
2023-04-02T04:34:38.192Z,6.1108
2023-04-02T04:35:39.444Z,6.1043
2023-04-02T04:36:39.218Z,6.1205
2023-04-02T04:37:41.033Z,6.1178
2023-04-02T04:38:41.806Z,6.1361
2023-04-02T04:39:42.640Z,6.1578
2023-04-02T04:40:43.448Z,6.1574
2023-04-02T04:41:44.456Z,6.1716
2023-04-02T04:42:45.235Z,6.1835
2023-04-02T04:43:46.140Z,6.1832
2023-04-02T04:44:46.937Z,6.1869
2023-04-02T04:45:47.941Z,6.1910
2023-04-02T04:46:48.778Z,6.1861
2023-04-02T04:47:49.651Z,6.1992
2023-04-02T04:48:50.559Z,6.2013
2023-04-02T04:49:51.402Z,6.1956
2023-04-02T04:50:52.279Z,6.1852
2023-04-02T04:51:53.200Z,6.1980
2023-04-02T04:52:54.077Z,6.2220
2023-04-02T04:53:55.958Z,6.2224
2023-04-02T04:54:56.747Z,6.2111
2023-04-02T04:56:05.905Z,6.1844
2023-04-02T04:56:59.157Z,6.1704
2023-04-02T04:58:00.055Z,6.1775
2023-04-02T04:59:00.856Z,6.2059
2023-04-02T05:00:01.649Z,6.2309
2023-04-02T05:01:02.515Z,6.2279
2023-04-02T05:02:03.460Z,6.2243
2023-04-02T05:03:04.303Z,6.2114
2023-04-02T05:04:05.137Z,6.1696
2023-04-02T05:05:05.982Z,6.1605
2023-04-02T05:06:06.792Z,6.1405
2023-04-02T05:07:07.647Z,6.1578
2023-04-02T05:08:08.465Z,6.1205
2023-04-02T05:09:09.274Z,6.1196
2023-04-02T05:10:10.127Z,6.1694
2023-04-02T05:11:10.983Z,6.1756
2023-04-02T05:12:11.876Z,6.1759
2023-04-02T05:13:12.800Z,6.1813
2023-04-02T05:14:13.589Z,6.1734
2023-04-02T05:15:14.461Z,6.1756
2023-04-02T05:16:16.372Z,6.1703
2023-04-02T05:17:17.187Z,6.1690
2023-04-02T05:18:18.005Z,6.1763
2023-04-02T05:19:19.084Z,6.1903
2023-04-02T05:20:19.854Z,6.1933
2023-04-02T05:21:20.637Z,6.2131
2023-04-02T05:22:21.469Z,6.2137
2023-04-02T05:23:22.278Z,6.2090
2023-04-02T05:24:23.097Z,6.2136
2023-04-02T05:25:23.943Z,6.2197
2023-04-02T05:26:24.752Z,6.2175
2023-04-02T05:27:25.680Z,6.2067
2023-04-02T05:28:26.510Z,6.2230
2023-04-02T05:29:27.465Z,6.2225
2023-04-02T05:30:28.266Z,6.2553
2023-04-02T05:31:29.156Z,6.2940
2023-04-02T05:32:29.999Z,6.3170
2023-04-02T05:33:30.866Z,6.3043
2023-04-02T05:34:31.699Z,6.2854
2023-04-02T05:35:32.567Z,6.2873
2023-04-02T05:36:33.364Z,6.2761
2023-04-02T05:37:34.281Z,6.2900
2023-04-02T05:38:35.132Z,6.3042
2023-04-02T05:39:36.009Z,6.3094
2023-04-02T05:40:36.880Z,6.3038
2023-04-02T05:41:37.743Z,6.3031
2023-04-02T05:42:38.578Z,6.3047
2023-04-02T05:43:39.359Z,6.3203
2023-04-02T05:44:40.170Z,6.3229
2023-04-02T05:45:40.988Z,6.3256
2023-04-02T05:46:41.855Z,6.3187
2023-04-02T05:47:42.805Z,6.3234
2023-04-02T05:48:43.660Z,6.3187
2023-04-02T05:49:44.468Z,6.3393
2023-04-02T05:50:45.283Z,6.3313
2023-04-02T05:51:46.078Z,6.3309
2023-04-02T05:52:46.962Z,6.3135
2023-04-02T05:53:47.754Z,6.3240
2023-04-02T05:54:48.691Z,6.3322
2023-04-02T05:55:49.555Z,6.3571
2023-04-02T05:56:50.456Z,6.3663
2023-04-02T05:58:13.505Z,6.3723
2023-04-02T05:58:52.781Z,6.3581
2023-04-02T05:59:53.660Z,6.3829
2023-04-02T06:00:54.535Z,6.3664
2023-04-02T06:01:55.383Z,6.3863
2023-04-02T06:02:56.284Z,6.4042
2023-04-02T06:03:58.049Z,6.4261
2023-04-02T06:04:58.867Z,6.4574
2023-04-02T06:05:59.695Z,6.4461
2023-04-02T06:07:00.621Z,6.4401
2023-04-02T06:08:02.504Z,6.4851
2023-04-02T06:09:03.310Z,6.4407
2023-04-02T06:10:04.135Z,6.5001
2023-04-02T06:11:05.024Z,6.4795
2023-04-02T06:12:05.861Z,6.5019
2023-04-02T06:13:06.747Z,6.5166
2023-04-02T06:14:07.550Z,6.5283
2023-04-02T06:15:08.408Z,6.5310
2023-04-02T06:16:09.214Z,6.5093
2023-04-02T06:17:09.993Z,6.5714
2023-04-02T06:18:10.885Z,6.5963
2023-04-02T06:19:11.781Z,6.5559
2023-04-02T06:20:12.572Z,6.5060
2023-04-02T06:21:13.314Z,6.5493
2023-04-02T06:22:14.066Z,6.6029
2023-04-02T06:23:14.819Z,6.6220
2023-04-02T06:24:15.662Z,6.6142
2023-04-02T06:25:16.487Z,6.6151
2023-04-02T06:26:17.367Z,6.6611
2023-04-02T06:27:18.209Z,6.7251
2023-04-02T06:28:19.009Z,6.7876
2023-04-02T06:29:19.840Z,6.6085
2023-04-02T06:30:20.650Z,6.6451
2023-04-02T06:31:21.432Z,6.6731
2023-04-02T06:32:22.318Z,6.6579
2023-04-02T06:33:23.103Z,6.6535
2023-04-02T06:34:23.920Z,6.6692
2023-04-02T06:35:24.743Z,6.7681
2023-04-02T06:36:25.545Z,6.7512
2023-04-02T06:37:26.341Z,6.8009
2023-04-02T06:38:27.175Z,6.8483
2023-04-02T06:39:27.985Z,6.8837
2023-04-02T06:40:28.809Z,6.9099
2023-04-02T06:41:29.602Z,6.9306
2023-04-02T06:42:30.411Z,6.9351
2023-04-02T06:43:31.215Z,6.8919
2023-04-02T06:44:32.198Z,6.8657
2023-04-02T06:45:33.125Z,6.9401
2023-04-02T06:46:34.490Z,6.9328
2023-04-02T06:47:35.420Z,6.9882
2023-04-02T06:48:36.250Z,6.9203
2023-04-02T06:49:37.051Z,6.9911
2023-04-02T06:50:37.827Z,6.9690
2023-04-02T06:51:38.666Z,6.8967
2023-04-02T06:52:39.468Z,6.9677
2023-04-02T06:53:40.322Z,7.0123
2023-04-02T06:54:41.089Z,7.0663
2023-04-02T06:55:42.919Z,7.0226
2023-04-02T06:56:43.727Z,7.0892
2023-04-02T06:57:44.674Z,7.1223
2023-04-02T06:58:45.563Z,7.1479
2023-04-02T06:59:47.593Z,7.1870
2023-04-02T07:00:48.409Z,7.2517
2023-04-02T07:01:49.308Z,7.2462
2023-04-02T07:02:50.225Z,7.3869
2023-04-02T07:03:51.051Z,7.4634
2023-04-02T07:04:51.916Z,7.4879
2023-04-02T07:05:52.815Z,7.4675
2023-04-02T07:06:54.670Z,7.3963
2023-04-02T07:07:55.547Z,7.4244
2023-04-02T07:08:56.337Z,7.3917
2023-04-02T07:09:57.130Z,7.3522
2023-04-02T07:10:57.954Z,7.3460
2023-04-02T07:11:58.681Z,7.4033
2023-04-02T07:12:59.472Z,7.5067
2023-04-02T07:14:00.396Z,7.4684
2023-04-02T07:15:01.160Z,7.5111
2023-04-02T07:16:02.018Z,7.4930
2023-04-02T07:17:03.519Z,7.4412
2023-04-02T07:18:04.296Z,7.4745
2023-04-02T07:19:05.766Z,7.3519
2023-04-02T07:20:06.634Z,7.4575
2023-04-02T07:21:10.791Z,7.5139
2023-04-02T07:22:11.195Z,7.4384
2023-04-02T07:23:14.015Z,7.5422
2023-04-02T07:24:13.193Z,7.5281
2023-04-02T07:25:13.970Z,7.5674
2023-04-02T07:26:14.834Z,7.5559
2023-04-02T07:27:15.679Z,7.5159
2023-04-02T07:28:16.599Z,7.5494
2023-04-02T07:29:17.364Z,7.6584
2023-04-02T07:30:18.134Z,7.6923
2023-04-02T07:31:19.013Z,7.6980
2023-04-02T07:32:19.764Z,7.7508
2023-04-02T07:33:20.561Z,7.8306
2023-04-02T07:34:21.401Z,7.7861
2023-04-02T07:35:22.182Z,7.7935
2023-04-02T07:36:23.048Z,7.8763
2023-04-02T07:37:24.078Z,7.8872
2023-04-02T07:38:24.945Z,8.0108
2023-04-02T07:39:25.749Z,8.1783
2023-04-02T07:40:26.557Z,8.1508
2023-04-02T07:41:27.308Z,8.0440
2023-04-02T07:42:28.059Z,7.7896
2023-04-02T07:43:28.938Z,7.8795
2023-04-02T07:44:29.771Z,7.8126
2023-04-02T07:45:30.648Z,7.8917
2023-04-02T07:46:31.486Z,7.9808
2023-04-02T07:47:32.320Z,8.0093
2023-04-02T07:48:34.212Z,7.9650
2023-04-02T07:49:35.040Z,8.5396
2023-04-02T07:50:35.823Z,8.6326
2023-04-02T07:51:36.628Z,8.9844
2023-04-02T07:52:39.854Z,9.1051
2023-04-02T07:53:39.068Z,9.2232
2023-04-02T07:54:39.818Z,9.3707
2023-04-02T07:55:40.538Z,9.5454
2023-04-02T07:56:41.331Z,9.4028
2023-04-02T07:57:43.657Z,9.2038
2023-04-02T07:58:43.117Z,9.0403
2023-04-02T07:59:43.892Z,9.0089
2023-04-02T08:00:44.599Z,9.0275
2023-04-02T08:01:45.381Z,9.0638
2023-04-02T08:02:46.199Z,8.8868
2023-04-02T08:03:47.031Z,8.7865
2023-04-02T08:04:47.941Z,8.6214
2023-04-02T08:05:48.676Z,8.6022
2023-04-02T08:06:49.473Z,8.6258
2023-04-02T08:07:50.250Z,8.3315
2023-04-02T08:08:51.060Z,8.3580
2023-04-02T08:09:51.834Z,8.3819
2023-04-02T08:10:52.658Z,8.2104
2023-04-02T08:11:53.417Z,8.2433
2023-04-02T08:12:54.241Z,8.3628
2023-04-02T08:13:55.032Z,8.3362
2023-04-02T08:14:55.811Z,8.5064
2023-04-02T08:15:56.568Z,8.5490
2023-04-02T08:16:57.376Z,8.5240
2023-04-02T08:17:58.366Z,8.5616
2023-04-02T08:18:59.276Z,8.3341
2023-04-02T08:20:00.056Z,8.5692
2023-04-02T08:21:00.779Z,8.4017
2023-04-02T08:22:01.832Z,8.4984
2023-04-02T08:23:02.587Z,8.5984
2023-04-02T08:24:03.333Z,8.7167
2023-04-02T08:25:04.161Z,8.4776
2023-04-02T08:26:04.899Z,8.4165
2023-04-02T08:27:05.658Z,8.4207
2023-04-02T08:28:06.398Z,8.7499
2023-04-02T08:29:07.099Z,9.0961
2023-04-02T08:30:07.896Z,8.8929
2023-04-02T08:31:08.641Z,9.0863
2023-04-02T08:32:09.414Z,9.1797
2023-04-02T08:33:10.181Z,9.0459
2023-04-02T08:34:10.940Z,8.9336
2023-04-02T08:35:11.667Z,9.0979
2023-04-02T08:36:12.492Z,9.0061
2023-04-02T08:37:13.197Z,8.7818
2023-04-02T08:38:13.934Z,8.7496
2023-04-02T08:39:14.959Z,8.8536
2023-04-02T08:40:15.696Z,8.6337
2023-04-02T08:41:16.457Z,8.7420
2023-04-02T08:42:17.218Z,8.9211
2023-04-02T08:43:17.942Z,8.8436
2023-04-02T08:44:18.675Z,8.7512
2023-04-02T08:45:24.871Z,8.8799
2023-04-02T08:46:19.777Z,8.8204
2023-04-02T08:47:20.574Z,8.8509
2023-04-02T08:48:21.327Z,8.7317
2023-04-02T08:49:22.089Z,8.6930
2023-04-02T08:50:22.856Z,8.6052
2023-04-02T08:51:23.615Z,8.6816
2023-04-02T08:52:24.309Z,8.6265
2023-04-02T08:53:25.077Z,8.7220
2023-04-02T08:54:25.857Z,8.5019
2023-04-02T08:55:26.657Z,8.6189
2023-04-02T08:56:27.370Z,8.6898
2023-04-02T08:57:28.217Z,8.7998
2023-04-02T08:58:29.116Z,8.7727
2023-04-02T08:59:29.886Z,8.7016
2023-04-02T09:00:30.641Z,8.8118
2023-04-02T09:01:31.420Z,8.9756
2023-04-02T09:02:32.324Z,8.9817
2023-04-02T09:03:33.079Z,8.8663
2023-04-02T09:04:33.829Z,8.7690
2023-04-02T09:05:34.803Z,8.9528
2023-04-02T09:06:36.014Z,9.0165
2023-04-02T09:07:36.778Z,9.0039
2023-04-02T09:08:37.539Z,8.8914
2023-04-02T09:09:38.305Z,8.9436
2023-04-02T09:10:39.142Z,9.0632
2023-04-02T09:11:39.941Z,9.0544
2023-04-02T09:12:42.279Z,9.2480
2023-04-02T09:13:40.884Z,9.2144
2023-04-02T09:14:41.639Z,9.0893
2023-04-02T09:15:42.463Z,9.2833
2023-04-02T09:16:43.194Z,9.4600
2023-04-02T09:17:53.629Z,9.3620
2023-04-02T09:18:44.072Z,9.3363
2023-04-02T09:19:44.776Z,9.5011
2023-04-02T09:20:45.521Z,9.4224
2023-04-02T09:21:46.492Z,9.4391
2023-04-02T09:22:47.237Z,9.4255
2023-04-02T09:23:47.955Z,9.5107
2023-04-02T09:24:48.686Z,9.8386
2023-04-02T09:26:02.995Z,10.0296
2023-04-02T09:26:50.791Z,9.9789
2023-04-02T09:27:51.498Z,10.1313
2023-04-02T09:28:52.217Z,10.0077
2023-04-02T09:29:52.924Z,9.7872
2023-04-02T09:30:53.646Z,9.7008
2023-04-02T09:31:54.421Z,9.9894
2023-04-02T09:32:55.274Z,9.9775
2023-04-02T09:33:55.997Z,9.9953
2023-04-02T09:34:56.739Z,10.0647
2023-04-02T09:35:57.595Z,10.2500
2023-04-02T09:36:58.664Z,9.8038
2023-04-02T09:37:59.384Z,9.5298
2023-04-02T09:39:00.115Z,9.5552
2023-04-02T09:40:00.827Z,9.5280
2023-04-02T09:41:01.601Z,9.6932
2023-04-02T09:42:05.851Z,9.6603
2023-04-02T09:43:02.321Z,9.5697
2023-04-02T09:44:03.082Z,9.4167
2023-04-02T09:45:03.879Z,9.3729
2023-04-02T09:46:04.767Z,9.2995
2023-04-02T09:47:05.750Z,9.3759
2023-04-02T09:48:06.586Z,9.5332
2023-04-02T09:49:07.353Z,9.2955
2023-04-02T09:50:08.075Z,9.3858
2023-04-02T09:51:08.815Z,9.3663
2023-04-02T09:52:09.585Z,9.4823
2023-04-02T09:53:10.277Z,9.4999
2023-04-02T09:54:11.006Z,9.4487
2023-04-02T09:55:11.766Z,9.4228
2023-04-02T09:56:12.556Z,9.3418
2023-04-02T09:57:13.338Z,9.4963
2023-04-02T09:58:14.116Z,9.4952
2023-04-02T09:59:14.824Z,9.4500
2023-04-02T10:00:29.750Z,9.5050
2023-04-02T10:01:16.980Z,9.5051
2023-04-02T10:02:17.854Z,9.5827
2023-04-02T10:03:18.589Z,9.6381
2023-04-02T10:04:19.416Z,9.6417
2023-04-02T10:05:30.194Z,9.7528
2023-04-02T10:06:21.561Z,9.9169
2023-04-02T10:07:22.274Z,10.0236
2023-04-02T10:08:23.040Z,10.1261
2023-04-02T10:09:23.787Z,10.0206
2023-04-02T10:10:25.926Z,9.8984
2023-04-02T10:11:28.854Z,10.0513
2023-04-02T10:12:26.494Z,10.1479
2023-04-02T10:13:27.233Z,10.3107
2023-04-02T10:14:27.936Z,10.3418
2023-04-02T10:15:28.703Z,10.2406
2023-04-02T10:16:29.599Z,10.2517
2023-04-02T10:17:30.424Z,10.4510
2023-04-02T10:18:31.068Z,10.4025
2023-04-02T10:19:31.892Z,10.6491
2023-04-02T10:20:39.072Z,10.7520
2023-04-02T10:21:34.013Z,10.7125
2023-04-02T10:22:34.724Z,10.8165
2023-04-02T10:23:35.421Z,10.9227
2023-04-02T10:24:36.160Z,10.5825
2023-04-02T10:25:37.108Z,10.2447
2023-04-02T10:26:38.236Z,10.3156
2023-04-02T10:27:38.912Z,10.3955
2023-04-02T10:28:39.604Z,10.2292
2023-04-02T10:29:40.348Z,10.1987
2023-04-02T10:30:41.115Z,10.3298
2023-04-02T10:31:41.810Z,10.4234
2023-04-02T10:32:42.513Z,10.1904
2023-04-02T10:33:43.200Z,10.1461
2023-04-02T10:34:43.906Z,10.1332
2023-04-02T10:35:44.610Z,9.9256
2023-04-02T10:36:45.357Z,9.9925
2023-04-02T10:37:46.063Z,10.1929
2023-04-02T10:38:46.762Z,10.3918
2023-04-02T10:39:47.448Z,10.3699
2023-04-02T10:40:48.144Z,10.1697
2023-04-02T10:41:48.872Z,10.0212
2023-04-02T10:42:49.533Z,9.8198
2023-04-02T10:43:50.282Z,9.7845
2023-04-02T10:44:50.982Z,9.9433
2023-04-02T10:45:51.689Z,10.2407
2023-04-02T10:46:52.351Z,10.2889
2023-04-02T10:47:53.112Z,10.1623
2023-04-02T10:48:53.817Z,10.1830
2023-04-02T10:49:54.517Z,10.2796
2023-04-02T10:50:55.246Z,10.3087
2023-04-02T10:51:55.944Z,10.4906
2023-04-02T10:52:56.875Z,10.7111
2023-04-02T10:53:57.580Z,10.7115
2023-04-02T10:54:58.301Z,10.5291
2023-04-02T10:55:58.987Z,10.6022
2023-04-02T10:56:59.694Z,10.4873
2023-04-02T10:58:00.339Z,10.5194
2023-04-02T10:59:01.017Z,10.3926
2023-04-02T11:00:01.827Z,10.3958
2023-04-02T11:01:02.548Z,10.5678
2023-04-02T11:02:03.258Z,10.6612
2023-04-02T11:03:04.446Z,10.9211
2023-04-02T11:04:05.412Z,10.8666
2023-04-02T11:05:06.123Z,11.0096
2023-04-02T11:06:07.112Z,10.8546
2023-04-02T11:07:14.354Z,10.8926
2023-04-02T11:08:09.002Z,10.8826
2023-04-02T11:09:09.681Z,10.9247
2023-04-02T11:10:10.363Z,11.0902
2023-04-02T11:11:11.071Z,10.9602
2023-04-02T11:12:11.750Z,10.6082
2023-04-02T11:13:12.440Z,10.7905
2023-04-02T11:14:13.132Z,10.9728
2023-04-02T11:15:13.816Z,10.9792
2023-04-02T11:16:14.557Z,10.9051
2023-04-02T11:17:15.181Z,10.9043
2023-04-02T11:18:15.901Z,10.8418
2023-04-02T11:19:16.840Z,11.3250
2023-04-02T11:20:17.588Z,11.3239
2023-04-02T11:21:18.279Z,11.3901
2023-04-02T11:22:18.985Z,11.1882
2023-04-02T11:23:19.690Z,11.0341
2023-04-02T11:24:20.388Z,10.7585
2023-04-02T11:25:21.117Z,10.8999
2023-04-02T11:26:21.789Z,11.1396
2023-04-02T11:27:22.498Z,11.2132
2023-04-02T11:28:25.044Z,11.3340
2023-04-02T11:29:23.768Z,11.5865
2023-04-02T11:30:24.479Z,11.5342
2023-04-02T11:31:25.170Z,11.5167
2023-04-02T11:32:25.860Z,11.5579
2023-04-02T11:33:36.259Z,11.1521
2023-04-02T11:34:27.926Z,11.3127
2023-04-02T11:35:28.661Z,11.2305
2023-04-02T11:36:29.355Z,11.3756
2023-04-02T11:37:30.078Z,11.4090
2023-04-02T11:38:30.766Z,11.6089
2023-04-02T11:39:31.472Z,11.6542
2023-04-02T11:40:32.179Z,11.6408
2023-04-02T11:41:32.924Z,11.6600
2023-04-02T11:42:33.611Z,12.0285
2023-04-02T11:43:34.317Z,11.8478
2023-04-02T11:44:35.030Z,12.0284
2023-04-02T11:45:46.499Z,11.9994
2023-04-02T11:46:37.146Z,11.9088
2023-04-02T11:47:37.894Z,12.0534
2023-04-02T11:48:38.597Z,11.8180
2023-04-02T11:49:39.298Z,11.5501
2023-04-02T11:50:40.951Z,12.1193
2023-04-02T11:51:42.358Z,12.2878
2023-04-02T11:52:43.131Z,11.5545
2023-04-02T11:53:43.762Z,11.7036
2023-04-02T11:54:44.413Z,12.1275
2023-04-02T11:55:45.065Z,12.3120
2023-04-02T11:56:45.749Z,11.4282
2023-04-02T11:57:46.467Z,11.5416
2023-04-02T11:58:47.124Z,11.8475
2023-04-02T11:59:47.793Z,11.7075
2023-04-02T12:00:48.473Z,13.4337
2023-04-02T12:01:49.155Z,14.0461
2023-04-02T12:02:49.867Z,14.2028
2023-04-02T12:03:50.559Z,12.6420
2023-04-02T12:04:51.200Z,11.6837
2023-04-02T12:05:51.903Z,12.1513
2023-04-02T12:06:52.564Z,11.2815
2023-04-02T12:07:53.272Z,10.7799
2023-04-02T12:08:57.903Z,10.9852
2023-04-02T12:09:54.803Z,11.2832
2023-04-02T12:10:55.511Z,11.5457
2023-04-02T12:11:57.192Z,11.4962
2023-04-02T12:12:57.875Z,11.5641
2023-04-02T12:13:58.561Z,11.6010
2023-04-02T12:14:59.263Z,11.4457
2023-04-02T12:15:59.911Z,11.4991
2023-04-02T12:17:00.678Z,11.4395
2023-04-02T12:18:01.379Z,11.3592
2023-04-02T12:19:02.031Z,11.2532
2023-04-02T12:20:05.118Z,11.3065
2023-04-02T12:21:04.536Z,11.4726
2023-04-02T12:22:05.195Z,11.1610
2023-04-02T12:23:05.926Z,11.1169
2023-04-02T12:24:06.600Z,11.0396
2023-04-02T12:25:07.275Z,10.9397
2023-04-02T12:26:07.961Z,10.9132
2023-04-02T12:27:08.588Z,11.1906
2023-04-02T12:28:09.322Z,11.4559
2023-04-02T12:29:10.122Z,11.5323
2023-04-02T12:30:10.786Z,11.6254
2023-04-02T12:31:11.457Z,11.2491
2023-04-02T12:32:12.184Z,11.3942
2023-04-02T12:33:12.919Z,11.2967
2023-04-02T12:34:13.595Z,11.6390